Time;durP1;ratioP1;P1;durP2;ratioP2;P2;SDS_P1;SDS_P2;PMS_P1;PMS_P2;Temp;Humidity;BMP_temperature;BMP_pressure;BME280_temperature;BME280_humidity;BME280_pressure;Samples;Min_cycle;Max_cycle;Signal;HPM_P1;HPM_P2
2022/09/23 00:00:41;;;;;;;1.52;0.63;;;;;;;;;;5030324;28;20057;-65
2022/09/23 00:03:13;;;;;;;0.80;0.32;;;;;;;;;;5029810;28;20049;-65
2022/09/23 00:05:43;;;;;;;1.08;0.43;;;;;;;;;;5013521;28;20057;-65
2022/09/23 00:08:14;;;;;;;1.65;0.70;;;;;;;;;;4981042;28;20053;-65
2022/09/23 00:10:44;;;;;;;0.93;0.47;;;;;;;;;;4997394;28;20054;-65
2022/09/23 00:13:15;;;;;;;2.92;0.65;;;;;;;;;;5029970;28;20061;-65
2022/09/23 00:15:45;;;;;;;1.08;0.50;;;;;;;;;;5040097;28;20445;-65
2022/09/23 00:18:16;;;;;;;0.60;0.35;;;;;;;;;;4999795;28;20072;-65
2022/09/23 00:20:48;;;;;;;2.05;0.70;;;;;;;;;;5020031;28;20067;-65
2022/09/23 00:23:18;;;;;;;1.92;0.50;;;;;;;;;;5069571;28;20079;-66
2022/09/23 00:26:00;;;;;;;5.55;2.38;;;;;;;;;;5006662;28;20519;-66
2022/09/23 00:28:31;;;;;;;1.17;0.75;;;;;;;;;;5069110;28;20063;-65
2022/09/23 00:31:17;;;;;;;4.97;1.52;;;;;;;;;;5069729;28;20071;-66
2022/09/23 00:33:55;;;;;;;3.78;1.10;;;;;;;;;;5053066;28;20099;-65
2022/09/23 00:36:27;;;;;;;1.13;0.45;;;;;;;;;;5019988;28;20064;-65
2022/09/23 00:38:57;;;;;;;4.30;0.85;;;;;;;;;;5053125;28;20051;-67
2022/09/23 00:41:28;;;;;;;1.08;0.45;;;;;;;;;;5069413;28;20052;-66
2022/09/23 00:43:59;;;;;;;1.10;0.60;;;;;;;;;;5069380;28;20063;-66
2022/09/23 00:46:37;;;;;;;3.05;0.77;;;;;;;;;;5069289;28;20547;-65
2022/09/23 00:49:12;;;;;;;0.35;0.20;;;;;;;;;;5069090;28;20059;-66
2022/09/23 00:51:58;;;;;;;1.80;0.70;;;;;;;;;;5036363;28;20056;-66
2022/09/23 00:54:30;;;;;;;0.93;0.30;;;;;;;;;;5069190;28;20152;-66
2022/09/23 00:57:02;;;;;;;3.85;0.47;;;;;;;;;;5027887;28;20053;-66
2022/09/23 00:59:32;;;;;;;0.85;0.40;;;;;;;;;;4996666;28;20053;-65
2022/09/23 01:02:04;;;;;;;2.47;0.60;;;;;;;;;;5009228;28;20562;-66
2022/09/23 01:04:35;;;;;;;0.40;0.30;;;;;;;;;;5009495;28;20073;-65
2022/09/23 01:07:05;;;;;;;1.13;0.30;;;;;;;;;;5009157;28;20407;-65
2022/09/23 01:09:36;;;;;;;1.05;0.40;;;;;;;;;;5009631;28;20066;-66
2022/09/23 01:12:23;;;;;;;0.90;0.30;;;;;;;;;;4977458;28;20061;-65
2022/09/23 01:15:15;;;;;;;2.33;0.50;;;;;;;;;;4969763;28;20066;-64
2022/09/23 01:17:46;;;;;;;;;;;;;;;;;;4919090;29;20664;-65
2022/09/23 01:20:40;;;;;;;0.35;0.20;;;;;;;;;;4950965;29;20393;-65
2022/09/23 01:23:48;;;;;;;3.22;0.85;;;;;;;;;;4912412;29;20048;-64
2022/09/23 01:26:36;;;;;;;0.90;0.20;;;;;;;;;;4928081;29;20055;-66
2022/09/23 01:29:24;;;;;;;3.55;1.75;;;;;;;;;;4912538;29;20068;-66
2022/09/23 01:32:25;;;;;;;1.17;0.28;;;;;;;;;;4899778;29;20424;-65
2022/09/23 01:35:01;;;;;;;0.70;0.35;;;;;;;;;;4954895;28;20059;-65
2022/09/23 01:37:59;;;;;;;0.30;0.20;;;;;;;;;;4969916;28;20058;-64
2022/09/23 01:40:58;;;;;;;0.47;0.22;;;;;;;;;;5005627;28;20057;-66
2022/09/23 01:43:32;;;;;;;0.30;0.17;;;;;;;;;;5012880;28;20054;-64
2022/09/23 01:46:14;;;;;;;1.92;0.30;;;;;;;;;;5012767;28;20553;-66
2022/09/23 01:49:09;;;;;;;2.03;0.40;;;;;;;;;;4980180;28;20154;-66
2022/09/23 01:51:46;;;;;;;0.68;0.20;;;;;;;;;;5015831;28;20065;-65
2022/09/23 01:54:27;;;;;;;0.60;0.45;;;;;;;;;;5031765;28;20061;-66
2022/09/23 01:57:01;;;;;;;0.75;0.25;;;;;;;;;;5012880;28;20510;-66
2022/09/23 01:59:38;;;;;;;0.40;0.22;;;;;;;;;;4996690;28;20053;-66
2022/09/23 02:02:11;;;;;;;1.55;0.45;;;;;;;;;;4976778;28;20050;-65
2022/09/23 02:05:08;;;;;;;3.33;0.30;;;;;;;;;;4992867;28;20503;-66
2022/09/23 02:07:49;;;;;;;2.63;0.38;;;;;;;;;;4995979;28;20557;-65
2022/09/23 02:10:35;;;;;;;0.95;0.75;;;;;;;;;;5012660;28;20143;-66
2022/09/23 02:13:14;;;;;;;0.30;0.20;;;;;;;;;;4996740;28;20550;-66
2022/09/23 02:15:52;;;;;;;0.60;0.30;;;;;;;;;;5012445;28;20061;-66
2022/09/23 02:18:33;;;;;;;0.25;0.10;;;;;;;;;;4979727;28;20045;-66
2022/09/23 02:21:07;;;;;;;1.38;0.30;;;;;;;;;;4992330;28;20057;-66
2022/09/23 02:23:52;;;;;;;1.33;0.40;;;;;;;;;;4976478;28;20047;-66
2022/09/23 02:26:32;;;;;;;2.38;0.38;;;;;;;;;;4992511;28;20062;-65
2022/09/23 02:29:25;;;;;;;1.45;0.30;;;;;;;;;;4976435;28;20171;-65
2022/09/23 02:32:31;;;;;;;1.00;0.22;;;;;;;;;;4972947;28;20523;-65
2022/09/23 02:35:40;;;;;;;1.33;0.20;;;;;;;;;;4972799;28;20058;-66
2022/09/23 02:38:24;;;;;;;1.40;0.30;;;;;;;;;;4988951;28;20054;-65
2022/09/23 02:41:06;;;;;;;0.80;0.30;;;;;;;;;;4972955;28;20063;-65
2022/09/23 02:43:47;;;;;;;1.05;0.22;;;;;;;;;;4921410;28;20044;-65
2022/09/23 02:46:19;;;;;;;0.77;0.20;;;;;;;;;;4960004;28;20546;-65
2022/09/23 02:48:55;;;;;;;1.20;0.43;;;;;;;;;;4992677;28;20065;-65
2022/09/23 02:51:33;;;;;;;1.60;0.70;;;;;;;;;;4978787;28;20045;-65
2022/09/23 02:54:06;;;;;;;0.98;0.40;;;;;;;;;;5011637;28;20054;-66
2022/09/23 02:56:36;;;;;;;;;;;;;;;;;;5012122;28;20065;-65
2022/09/23 02:59:08;;;;;;;1.08;0.40;;;;;;;;;;5024619;28;20420;-65
2022/09/23 03:01:51;;;;;;;;;;;;;;;;;;4999000;28;20057;-65
2022/09/23 03:04:30;;;;;;;1.35;0.40;;;;;;;;;;5031336;28;19921;-65
2022/09/23 03:07:15;;;;;;;0.93;0.40;;;;;;;;;;5031273;28;20069;-65
2022/09/23 03:10:04;;;;;;;0.85;0.30;;;;;;;;;;5043050;28;20501;-65
2022/09/23 03:12:56;;;;;;;1.15;0.40;;;;;;;;;;5051002;28;20053;-65
2022/09/23 03:16:15;;;;;;;1.27;0.43;;;;;;;;;;5050837;28;20098;-65
2022/09/23 03:18:55;;;;;;;2.00;0.40;;;;;;;;;;4952787;29;20411;-66
2022/09/23 03:21:36;;;;;;;1.58;0.60;;;;;;;;;;4953004;29;20070;-65
2022/09/23 03:24:13;;;;;;;1.80;0.40;;;;;;;;;;4952866;29;20421;-66
2022/09/23 03:26:46;;;;;;;1.35;0.20;;;;;;;;;;4972026;28;20070;-65
2022/09/23 03:29:19;;;;;;;3.97;0.68;;;;;;;;;;4928947;28;20047;-65
2022/09/23 03:31:49;;;;;;;1.33;0.50;;;;;;;;;;4920560;28;20055;-65
2022/09/23 03:34:25;;;;;;;2.75;0.30;;;;;;;;;;4952762;28;20497;-65
2022/09/23 03:37:00;;;;;;;2.60;0.30;;;;;;;;;;4921415;28;20056;-65
2022/09/23 03:39:34;;;;;;;0.70;0.30;;;;;;;;;;4952748;28;20051;-66
2022/09/23 03:42:21;;;;;;;2.28;0.43;;;;;;;;;;4936647;29;20055;-65
2022/09/23 03:44:53;;;;;;;1.63;0.52;;;;;;;;;;4952592;28;20055;-65
2022/09/23 03:47:27;;;;;;;1.55;0.40;;;;;;;;;;4904989;28;20193;-65
2022/09/23 03:49:58;;;;;;;1.23;0.40;;;;;;;;;;4914534;29;20060;-65
2022/09/23 03:52:28;;;;;;;0.90;0.30;;;;;;;;;;4914263;29;20056;-65
2022/09/23 03:54:58;;;;;;;1.75;0.38;;;;;;;;;;4965171;28;20414;-65
2022/09/23 03:57:28;;;;;;;0.70;0.30;;;;;;;;;;5010485;28;20099;-65
2022/09/23 03:59:57;;;;;;;1.25;0.50;;;;;;;;;;5010367;28;20058;-66
2022/09/23 04:02:28;;;;;;;0.90;0.60;;;;;;;;;;5009593;28;20054;-65
2022/09/23 04:04:57;;;;;;;3.28;0.60;;;;;;;;;;4995757;28;20058;-65
2022/09/23 04:07:28;;;;;;;1.15;0.47;;;;;;;;;;5019073;28;20069;-65
2022/09/23 04:09:58;;;;;;;1.08;0.63;;;;;;;;;;5030160;28;20052;-65
2022/09/23 04:12:28;;;;;;;1.25;0.40;;;;;;;;;;5030033;28;20053;-65
2022/09/23 04:14:57;;;;;;;0.95;0.40;;;;;;;;;;5029997;28;20057;-65
2022/09/23 04:17:27;;;;;;;1.05;0.50;;;;;;;;;;5049753;28;20044;-65
2022/09/23 04:19:57;;;;;;;1.23;0.50;;;;;;;;;;5049804;28;20103;-65
2022/09/23 04:22:27;;;;;;;1.17;0.40;;;;;;;;;;5016599;28;20421;-65
2022/09/23 04:24:57;;;;;;;0.57;0.25;;;;;;;;;;5000388;28;21306;-65
2022/09/23 04:27:27;;;;;;;0.70;0.40;;;;;;;;;;5068159;28;20060;-65
2022/09/23 04:29:59;;;;;;;0.80;0.43;;;;;;;;;;5089902;28;20071;-65
2022/09/23 04:32:30;;;;;;;1.45;0.30;;;;;;;;;;5089662;28;20519;-66
2022/09/23 04:35:01;;;;;;;1.27;0.45;;;;;;;;;;5039947;28;20051;-65
2022/09/23 04:37:31;;;;;;;2.85;0.47;;;;;;;;;;5089555;28;20044;-65
2022/09/23 04:40:02;;;;;;;0.88;0.40;;;;;;;;;;5046083;28;20067;-65
2022/09/23 04:42:31;;;;;;;0.47;0.30;;;;;;;;;;5091813;28;20052;-65
2022/09/23 04:45:03;;;;;;;1.15;0.40;;;;;;;;;;5091998;28;20051;-65
2022/09/23 04:47:34;;;;;;;0.65;0.40;;;;;;;;;;5091953;28;20488;-65
2022/09/23 04:50:04;;;;;;;0.95;0.40;;;;;;;;;;5056283;28;20063;-65
2022/09/23 04:52:34;;;;;;;1.33;0.50;;;;;;;;;;5073257;28;20060;-65
2022/09/23 04:55:05;;;;;;;1.35;0.35;;;;;;;;;;5092133;28;20036;-65
2022/09/23 04:57:39;;;;;;;1.42;0.50;;;;;;;;;;5091633;28;20044;-65
2022/09/23 05:00:14;;;;;;;0.90;0.40;;;;;;;;;;5069174;28;20071;-65
2022/09/23 05:02:46;;;;;;;1.00;0.38;;;;;;;;;;5068891;28;20057;-65
2022/09/23 05:05:19;;;;;;;2.47;0.40;;;;;;;;;;5019059;28;20052;-65
2022/09/23 05:07:50;;;;;;;0.98;0.30;;;;;;;;;;5068833;28;20504;-65
2022/09/23 05:10:20;;;;;;;2.42;0.50;;;;;;;;;;5052146;28;20524;-65
2022/09/23 05:12:50;;;;;;;1.23;0.40;;;;;;;;;;5035547;28;20766;-65
2022/09/23 05:15:25;;;;;;;1.58;0.45;;;;;;;;;;5052221;28;20053;-65
2022/09/23 05:17:58;;;;;;;1.20;0.45;;;;;;;;;;5035560;28;20061;-65
2022/09/23 05:20:28;;;;;;;1.50;0.50;;;;;;;;;;5019176;28;20063;-65
2022/09/23 05:22:59;;;;;;;1.55;0.80;;;;;;;;;;5035412;28;20056;-65
2022/09/23 05:25:29;;;;;;;2.78;0.70;;;;;;;;;;5068770;28;20582;-65
2022/09/23 05:28:06;;;;;;;1.58;0.60;;;;;;;;;;5068864;28;20059;-65
2022/09/23 05:30:36;;;;;;;2.28;0.60;;;;;;;;;;5018960;28;20052;-65
2022/09/23 05:33:06;;;;;;;1.85;0.73;;;;;;;;;;5028624;28;20048;-65
2022/09/23 05:35:35;;;;;;;1.63;0.60;;;;;;;;;;5028819;28;20062;-65
2022/09/23 05:38:06;;;;;;;2.83;1.13;;;;;;;;;;5027850;28;20566;-66
2022/09/23 05:40:36;;;;;;;2.97;0.70;;;;;;;;;;5068746;28;20214;-65
2022/09/23 05:43:06;;;;;;;1.88;0.68;;;;;;;;;;5051679;28;20167;-66
2022/09/23 05:45:36;;;;;;;2.72;1.25;;;;;;;;;;5068706;28;20044;-65
2022/09/23 05:48:07;;;;;;;2.85;0.80;;;;;;;;;;5068653;28;20587;-66
2022/09/23 05:50:38;;;;;;;3.83;1.17;;;;;;;;;;5048468;28;20100;-65
2022/09/23 05:53:08;;;;;;;5.55;1.02;;;;;;;;;;5048465;28;20049;-65
2022/09/23 05:55:38;;;;;;;4.82;1.05;;;;;;;;;;5048134;28;20425;-65
2022/09/23 05:58:08;;;;;;;3.17;0.95;;;;;;;;;;5048792;28;20065;-65
2022/09/23 06:00:42;;;;;;;3.25;0.93;;;;;;;;;;5015427;28;20162;-65
2022/09/23 06:03:15;;;;;;;4.70;1.25;;;;;;;;;;4992272;28;20469;-65
2022/09/23 06:05:47;;;;;;;3.50;0.90;;;;;;;;;;5008862;28;20054;-65
2022/09/23 06:08:17;;;;;;;4.00;0.95;;;;;;;;;;4992804;28;20062;-65
2022/09/23 06:10:47;;;;;;;4.72;1.38;;;;;;;;;;4970157;28;20062;-65
2022/09/23 06:13:22;;;;;;;3.28;1.10;;;;;;;;;;5012818;28;20061;-64
2022/09/23 06:15:57;;;;;;;3.88;1.20;;;;;;;;;;5006024;28;20054;-65
2022/09/23 06:18:27;;;;;;;4.05;1.60;;;;;;;;;;4976019;28;20058;-65
2022/09/23 06:21:01;;;;;;;4.30;1.35;;;;;;;;;;5008366;28;20065;-64
2022/09/23 06:23:31;;;;;;;5.65;1.85;;;;;;;;;;4992578;28;20069;-65
2022/09/23 06:26:07;;;;;;;8.00;2.28;;;;;;;;;;5010642;28;20046;-64
2022/09/23 06:28:39;;;;;;;6.50;1.98;;;;;;;;;;4996134;28;20487;-68
2022/09/23 06:31:15;;;;;;;5.18;1.58;;;;;;;;;;5035556;28;20517;-67
2022/09/23 06:33:45;;;;;;;4.88;1.25;;;;;;;;;;5062979;28;20544;-64
2022/09/23 06:36:16;;;;;;;5.95;1.42;;;;;;;;;;5092120;28;20040;-65
2022/09/23 06:39:06;;;;;;;3.47;1.15;;;;;;;;;;5092007;28;20052;-65
2022/09/23 06:41:37;;;;;;;3.17;1.02;;;;;;;;;;5092009;28;20063;-65
2022/09/23 06:44:13;;;;;;;2.90;0.93;;;;;;;;;;5075936;28;20048;-65
2022/09/23 06:46:44;;;;;;;3.15;1.30;;;;;;;;;;5092108;28;20070;-65
2022/09/23 06:49:14;;;;;;;2.80;1.00;;;;;;;;;;5092088;28;20051;-64
2022/09/23 06:51:44;;;;;;;4.35;1.30;;;;;;;;;;5041865;28;20052;-65
2022/09/23 06:54:14;;;;;;;4.18;1.13;;;;;;;;;;5070951;28;20428;-65
2022/09/23 06:56:46;;;;;;;6.43;0.98;;;;;;;;;;5094201;28;20503;-65
2022/09/23 06:59:17;;;;;;;3.85;1.40;;;;;;;;;;5074828;28;20048;-65
2022/09/23 07:01:49;;;;;;;4.13;0.90;;;;;;;;;;5094258;28;20040;-65
2022/09/23 07:04:19;;;;;;;3.95;1.20;;;;;;;;;;5093808;28;20032;-66
2022/09/23 07:06:55;;;;;;;3.38;1.00;;;;;;;;;;5094111;28;20040;-65
2022/09/23 07:09:26;;;;;;;3.25;1.23;;;;;;;;;;5093851;28;20040;-65
2022/09/23 07:11:57;;;;;;;3.38;1.08;;;;;;;;;;5074968;28;20094;-66
2022/09/23 07:14:27;;;;;;;4.25;1.20;;;;;;;;;;5094069;28;20059;-65
2022/09/23 07:16:58;;;;;;;3.33;1.00;;;;;;;;;;5092562;28;20052;-65
2022/09/23 07:19:29;;;;;;;4.85;1.30;;;;;;;;;;5093731;28;20048;-65
2022/09/23 07:22:00;;;;;;;4.07;1.40;;;;;;;;;;5074091;28;20052;-65
2022/09/23 07:24:30;;;;;;;2.50;0.95;;;;;;;;;;5040683;28;20056;-65
2022/09/23 07:27:01;;;;;;;6.25;1.13;;;;;;;;;;5057542;28;20064;-65
2022/09/23 07:29:32;;;;;;;5.13;1.55;;;;;;;;;;5090790;28;20056;-66
2022/09/23 07:32:16;;;;;;;3.55;1.35;;;;;;;;;;5091076;28;20056;-66
2022/09/23 07:34:47;;;;;;;3.13;1.58;;;;;;;;;;5070249;28;20048;-66
2022/09/23 07:37:17;;;;;;;3.60;0.95;;;;;;;;;;5036963;28;20063;-66
2022/09/23 07:39:48;;;;;;;2.33;0.80;;;;;;;;;;5053264;28;20423;-65
2022/09/23 07:42:19;;;;;;;5.57;1.33;;;;;;;;;;5054159;28;20049;-65
2022/09/23 07:44:49;;;;;;;2.13;1.10;;;;;;;;;;5030483;28;20042;-65
2022/09/23 07:47:19;;;;;;;3.33;1.10;;;;;;;;;;5030233;28;20061;-65
2022/09/23 07:49:49;;;;;;;2.72;0.98;;;;;;;;;;5030540;28;20061;-65
2022/09/23 07:52:19;;;;;;;3.50;1.20;;;;;;;;;;5030400;28;20053;-66
2022/09/23 07:54:49;;;;;;;1.92;0.82;;;;;;;;;;4997295;28;20060;-65
2022/09/23 07:57:20;;;;;;;3.15;1.33;;;;;;;;;;5030281;28;20068;-66
2022/09/23 07:59:50;;;;;;;4.50;1.17;;;;;;;;;;4985831;28;20061;-65
2022/09/23 08:02:20;;;;;;;3.05;0.90;;;;;;;;;;4961876;28;20068;-66
2022/09/23 08:04:50;;;;;;;2.40;0.82;;;;;;;;;;4977854;28;20061;-66
2022/09/23 08:07:21;;;;;;;2.22;1.17;;;;;;;;;;4971032;28;20062;-65
2022/09/23 08:09:51;;;;;;;2.35;1.05;;;;;;;;;;4971288;28;20055;-65
2022/09/23 08:12:21;;;;;;;3.38;1.20;;;;;;;;;;4971214;28;20157;-65
2022/09/23 08:14:51;;;;;;;3.88;0.95;;;;;;;;;;4971154;28;20051;-65
2022/09/23 08:17:20;;;;;;;3.80;1.30;;;;;;;;;;4980070;28;20058;-65
2022/09/23 08:19:51;;;;;;;5.63;1.83;;;;;;;;;;4990680;28;20062;-65
2022/09/23 08:22:21;;;;;;;3.47;1.40;;;;;;;;;;4992326;28;20058;-65
2022/09/23 08:24:51;;;;;;;2.85;1.35;;;;;;;;;;5039012;28;20417;-65
2022/09/23 08:27:26;;;;;;;4.55;1.80;;;;;;;;;;5049766;28;20041;-65
2022/09/23 08:29:56;;;;;;;4.00;1.73;;;;;;;;;;5016628;28;20072;-65
2022/09/23 08:32:26;;;;;;;3.75;1.50;;;;;;;;;;5016420;28;20053;-65
2022/09/23 08:34:56;;;;;;;3.05;1.20;;;;;;;;;;5049614;28;20055;-66
2022/09/23 08:37:26;;;;;;;5.22;1.40;;;;;;;;;;5016333;28;20421;-65
2022/09/23 08:39:56;;;;;;;5.85;1.17;;;;;;;;;;5015908;28;20076;-65
2022/09/23 08:42:32;;;;;;;4.82;1.52;;;;;;;;;;5049602;28;20469;-65
2022/09/23 08:45:07;;;;;;;2.83;1.25;;;;;;;;;;5044849;28;20122;-65
2022/09/23 08:47:52;;;;;;;5.25;1.48;;;;;;;;;;5092001;28;20051;-65
2022/09/23 08:50:33;;;;;;;7.30;1.40;;;;;;;;;;5089716;28;20048;-65
2022/09/23 08:53:10;;;;;;;3.42;1.52;;;;;;;;;;5091930;28;20044;-65
2022/09/23 08:55:48;;;;;;;3.08;1.30;;;;;;;;;;5089393;28;20451;-65
2022/09/23 08:58:56;;;;;;;4.97;1.50;;;;;;;;;;5089487;28;20198;-65
2022/09/23 09:01:56;;;;;;;4.38;1.60;;;;;;;;;;5029273;28;20431;-66
2022/09/23 09:04:35;;;;;;;3.53;1.77;;;;;;;;;;4970456;28;20062;-65
2022/09/23 09:07:06;;;;;;;5.47;1.30;;;;;;;;;;4922345;28;20058;-66
2022/09/23 09:10:11;;;;;;;3.10;1.50;;;;;;;;;;4970437;28;20470;-65
2022/09/23 09:12:45;;;;;;;4.15;1.30;;;;;;;;;;4970265;28;20053;-65
2022/09/23 09:15:22;;;;;;;3.85;1.48;;;;;;;;;;4970034;28;20059;-66
2022/09/23 09:18:05;;;;;;;5.45;1.52;;;;;;;;;;4950691;29;20047;-66
2022/09/23 09:21:08;;;;;;;4.53;1.33;;;;;;;;;;4950784;29;20059;-65
2022/09/23 09:23:56;;;;;;;3.55;1.73;;;;;;;;;;4950828;29;20470;-65
2022/09/23 09:26:31;;;;;;;3.13;1.45;;;;;;;;;;4950760;29;20066;-65
2022/09/23 09:29:04;;;;;;;3.67;1.27;;;;;;;;;;4950753;29;20051;-65
2022/09/23 09:31:56;;;;;;;3.65;1.40;;;;;;;;;;4951071;29;20047;-65
2022/09/23 09:34:40;;;;;;;3.42;1.58;;;;;;;;;;4940955;28;20081;-65
2022/09/23 09:37:32;;;;;;;4.82;1.48;;;;;;;;;;4993196;28;20066;-66
2022/09/23 09:40:04;;;;;;;2.95;1.42;;;;;;;;;;4976205;28;20081;-66
2022/09/23 09:42:39;;;;;;;4.10;1.50;;;;;;;;;;5064546;28;20056;-65
2022/09/23 09:45:37;;;;;;;4.82;1.50;;;;;;;;;;5068912;28;20504;-66
2022/09/23 09:48:16;;;;;;;5.80;1.75;;;;;;;;;;5068495;28;20143;-65
2022/09/23 09:50:52;;;;;;;6.05;2.17;;;;;;;;;;5008534;28;20154;-66
2022/09/23 09:53:34;;;;;;;6.65;2.05;;;;;;;;;;5009115;28;20054;-65
2022/09/23 09:56:15;;;;;;;9.57;3.38;;;;;;;;;;5020965;28;20579;-65
2022/09/23 09:58:54;;;;;;;10.20;3.15;;;;;;;;;;5048852;28;20059;-65
2022/09/23 10:01:33;;;;;;;11.18;3.20;;;;;;;;;;5051167;28;20049;-66
2022/09/23 10:04:28;;;;;;;11.63;3.03;;;;;;;;;;5019319;28;20057;-65
2022/09/23 10:07:11;;;;;;;12.85;3.20;;;;;;;;;;5019091;28;20060;-66
2022/09/23 10:09:49;;;;;;;9.88;3.00;;;;;;;;;;5052369;28;20064;-65
2022/09/23 10:12:45;;;;;;;13.95;3.40;;;;;;;;;;5052345;28;20091;-66
2022/09/23 10:15:27;;;;;;;10.75;2.85;;;;;;;;;;5052231;28;20095;-65
2022/09/23 10:18:00;;;;;;;8.82;2.75;;;;;;;;;;5052192;28;20049;-65
2022/09/23 10:20:36;;;;;;;;;;;;;;;;;;5052727;28;20045;-66
2022/09/23 10:23:13;;;;;;;6.20;2.35;;;;;;;;;;5051881;28;20317;-66
2022/09/23 10:25:53;;;;;;;10.15;2.80;;;;;;;;;;5035295;28;20049;-65
2022/09/23 10:28:43;;;;;;;8.95;3.13;;;;;;;;;;5073425;28;20060;-65
2022/09/23 10:31:25;;;;;;;9.18;3.40;;;;;;;;;;5092286;28;20052;-65
2022/09/23 10:34:18;;;;;;;7.40;2.83;;;;;;;;;;5091987;28;20055;-65
2022/09/23 10:37:15;;;;;;;8.80;2.53;;;;;;;;;;5012157;28;20058;-65
2022/09/23 10:49:22;;;;;;;4.45;1.83;;;;;;;;;;4972766;28;20047;-65
2022/09/23 10:52:15;;;;;;;4.60;1.92;;;;;;;;;;4921631;29;20051;-64
2022/09/23 10:55:20;;;;;;;7.20;2.00;;;;;;;;;;4880363;29;20553;-64
2022/09/23 10:57:59;;;;;;;5.00;1.75;;;;;;;;;;4896555;29;20052;-65
2022/09/23 11:00:45;;;;;;;6.40;2.58;;;;;;;;;;4896430;29;20057;-65
2022/09/23 11:03:42;;;;;;;6.95;2.58;;;;;;;;;;4864965;29;20079;-65
2022/09/23 11:06:25;;;;;;;4.80;1.80;;;;;;;;;;4849827;29;20052;-65
2022/09/23 11:09:39;;;;;;;3.72;1.67;;;;;;;;;;4899235;29;20052;-65
2022/09/23 11:12:36;;;;;;;5.95;2.22;;;;;;;;;;4879460;29;20059;-66
2022/09/23 11:15:25;;;;;;;5.45;2.25;;;;;;;;;;4897485;29;20397;-66
2022/09/23 11:18:30;;;;;;;10.43;2.80;;;;;;;;;;4913726;29;20520;-66
2022/09/23 11:21:21;;;;;;;5.05;1.85;;;;;;;;;;4953116;29;20059;-66
2022/09/23 11:24:14;;;;;;;5.28;1.92;;;;;;;;;;4933574;29;20525;-66
2022/09/23 11:27:03;;;;;;;3.33;1.15;;;;;;;;;;4917594;29;20063;-66
2022/09/23 11:30:10;;;;;;;2.70;1.00;;;;;;;;;;4964307;28;20051;-66
2022/09/23 11:32:52;;;;;;;3.05;1.00;;;;;;;;;;4983260;28;20054;-66
2022/09/23 11:35:46;;;;;;;2.45;0.80;;;;;;;;;;4943017;28;20070;-66
2022/09/23 11:38:37;;;;;;;3.17;1.10;;;;;;;;;;4991466;28;20058;-67
2022/09/23 11:41:29;;;;;;;2.10;0.80;;;;;;;;;;4902053;29;20508;-66
2022/09/23 11:44:18;;;;;;;2.35;0.90;;;;;;;;;;4882602;29;20055;-66
2022/09/23 11:46:51;;;;;;;1.95;0.90;;;;;;;;;;4949407;28;20549;-66
2022/09/23 11:49:38;;;;;;;1.73;0.90;;;;;;;;;;4984076;28;20065;-67
2022/09/23 11:52:08;;;;;;;3.75;1.27;;;;;;;;;;4971590;28;20054;-67
2022/09/23 11:54:46;;;;;;;3.83;0.80;;;;;;;;;;4971673;28;20462;-67
2022/09/23 11:57:42;;;;;;;2.53;0.88;;;;;;;;;;4971548;28;20062;-66
2022/09/23 12:00:18;;;;;;;1.92;0.90;;;;;;;;;;4971490;28;20061;-66
2022/09/23 12:03:08;;;;;;;1.90;0.75;;;;;;;;;;4994155;28;20057;-66
2022/09/23 12:05:44;;;;;;;1.70;0.70;;;;;;;;;;5010503;28;20046;-66
2022/09/23 12:08:32;;;;;;;1.98;0.77;;;;;;;;;;4977927;28;20088;-68
2022/09/23 12:11:17;;;;;;;1.35;0.50;;;;;;;;;;4976731;28;20394;-67
2022/09/23 12:14:07;;;;;;;1.90;0.60;;;;;;;;;;5013220;28;20049;-67
2022/09/23 12:16:54;;;;;;;1.15;0.63;;;;;;;;;;5069963;28;20048;-67
2022/09/23 12:19:35;;;;;;;1.52;0.63;;;;;;;;;;4980659;28;20045;-66
2022/09/23 12:22:33;;;;;;;1.40;0.60;;;;;;;;;;5029996;28;20429;-67
2022/09/23 12:25:28;;;;;;;1.30;0.70;;;;;;;;;;5029793;28;20046;-67
2022/09/23 12:28:12;;;;;;;1.38;0.60;;;;;;;;;;5029739;28;20050;-67
2022/09/23 12:30:44;;;;;;;3.47;1.17;;;;;;;;;;5064305;28;20064;-68
2022/09/23 12:33:21;;;;;;;3.33;1.42;;;;;;;;;;5036360;28;20386;-67
2022/09/23 12:35:54;;;;;;;1.52;0.60;;;;;;;;;;5069588;28;20499;-68
2022/09/23 12:38:31;;;;;;;1.80;0.70;;;;;;;;;;5069641;28;20045;-67
2022/09/23 12:41:17;;;;;;;1.77;0.85;;;;;;;;;;5036162;28;20507;-67
2022/09/23 12:44:01;;;;;;;1.77;0.60;;;;;;;;;;5069459;28;20041;-67
2022/09/23 12:46:31;;;;;;;3.08;0.80;;;;;;;;;;5036120;28;20051;-67
2022/09/23 12:49:05;;;;;;;2.15;0.80;;;;;;;;;;5069207;28;20058;-69
2022/09/23 12:51:36;;;;;;;2.22;0.90;;;;;;;;;;5090110;28;20056;-68
2022/09/23 12:54:22;;;;;;;3.50;1.20;;;;;;;;;;5091926;28;20043;-67
2022/09/23 12:56:56;;;;;;;3.50;1.27;;;;;;;;;;5091947;28;20400;-67
2022/09/23 12:59:29;;;;;;;2.00;0.98;;;;;;;;;;5089643;28;20059;-67
2022/09/23 13:02:27;;;;;;;1.33;0.60;;;;;;;;;;5089648;28;20981;-67
2022/09/23 13:08:18;;;;;;;3.30;0.73;;;;;;;;;;5029006;28;20057;-67
2022/09/23 13:10:54;;;;;;;3.58;1.65;;;;;;;;;;4996304;28;20057;-67
2022/09/23 13:13:31;;;;;;;1.45;0.68;;;;;;;;;;5029159;28;20061;-67
2022/09/23 13:16:13;;;;;;;0.75;0.40;;;;;;;;;;5028934;28;20053;-67
2022/09/23 13:19:05;;;;;;;1.77;1.00;;;;;;;;;;4989297;28;20158;-67
2022/09/23 13:21:45;;;;;;;1.35;0.55;;;;;;;;;;4918571;28;20459;-68
2022/09/23 13:24:23;;;;;;;2.30;0.70;;;;;;;;;;4950751;28;20058;-67
2022/09/23 13:27:12;;;;;;;3.83;1.88;;;;;;;;;;4950888;28;20458;-67
2022/09/23 13:29:44;;;;;;;26.20;8.95;;;;;;;;;;4950809;28;21111;-68
2022/09/23 13:32:17;;;;;;;29.20;7.82;;;;;;;;;;4935074;28;20069;-67
2022/09/23 13:34:59;;;;;;;19.10;8.07;;;;;;;;;;4918314;28;20070;-67
2022/09/23 13:37:41;;;;;;;13.65;5.40;;;;;;;;;;4950635;28;20066;-68
2022/09/23 13:40:26;;;;;;;11.38;5.80;;;;;;;;;;4950616;28;20058;-67
2022/09/23 13:43:06;;;;;;;1.48;0.80;;;;;;;;;;4963130;28;20070;-67
2022/09/23 13:45:40;;;;;;;3.35;1.08;;;;;;;;;;5017263;28;20073;-68
2022/09/23 13:48:14;;;;;;;4.13;1.95;;;;;;;;;;5028564;28;20159;-68
2022/09/23 13:50:49;;;;;;;10.77;5.18;;;;;;;;;;4979907;28;20472;-68
2022/09/23 13:53:31;;;;;;;1.88;0.47;;;;;;;;;;5028550;28;20623;-67
2022/09/23 13:56:15;;;;;;;1.65;0.50;;;;;;;;;;5006678;28;20056;-68
2022/09/23 13:58:45;;;;;;;1.55;0.80;;;;;;;;;;5075290;28;20435;-67
2022/09/23 14:01:28;;;;;;;4.40;1.10;;;;;;;;;;5091152;28;20044;-68
2022/09/23 14:04:00;;;;;;;2.45;0.73;;;;;;;;;;5091190;28;20039;-69
2022/09/23 14:06:31;;;;;;;4.28;2.47;;;;;;;;;;5090818;28;20048;-68
2022/09/23 14:09:01;;;;;;;2.63;0.90;;;;;;;;;;5091212;28;20111;-68
2022/09/23 14:11:34;;;;;;;4.97;1.75;;;;;;;;;;5091224;28;20051;-68
2022/09/23 14:14:06;;;;;;;3.60;1.50;;;;;;;;;;5072164;28;20594;-68
2022/09/23 14:16:38;;;;;;;;;;;;;;;;;;5091680;28;20063;-69
2022/09/23 14:19:16;;;;;;;1.77;0.73;;;;;;;;;;5088281;28;19927;-69
2022/09/23 14:21:52;;;;;;;1.83;0.70;;;;;;;;;;5054926;28;20434;-67
2022/09/23 14:24:35;;;;;;;1.80;0.60;;;;;;;;;;5071528;28;20051;-68
2022/09/23 14:27:06;;;;;;;1.33;0.47;;;;;;;;;;5088160;28;20052;-67
2022/09/23 14:29:39;;;;;;;1.65;0.47;;;;;;;;;;5088615;28;20044;-68
2022/09/23 14:32:23;;;;;;;1.92;0.30;;;;;;;;;;5088417;28;20549;-68
2022/09/23 14:35:02;;;;;;;1.15;0.75;;;;;;;;;;5071602;28;20047;-68
2022/09/23 14:40:33;;;;;;;1.35;0.55;;;;;;;;;;5088298;28;20049;-68
2022/09/23 14:43:04;;;;;;;6.18;2.95;;;;;;;;;;5055650;28;20064;-67
2022/09/23 14:45:39;;;;;;;0.98;0.40;;;;;;;;;;5071248;28;20064;-68
2022/09/23 14:48:17;;;;;;;1.80;0.52;;;;;;;;;;5091838;28;20044;-68
2022/09/23 14:51:19;;;;;;;1.90;0.55;;;;;;;;;;5051104;28;20052;-67
2022/09/23 14:53:50;;;;;;;1.17;0.50;;;;;;;;;;5031279;28;20072;-70
2022/09/23 14:56:22;;;;;;;2.58;0.60;;;;;;;;;;5037937;28;20061;-68
2022/09/23 14:58:59;;;;;;;2.03;0.98;;;;;;;;;;5051672;28;20063;-67
2022/09/23 15:01:35;;;;;;;2.05;0.80;;;;;;;;;;5018311;28;20087;-68
2022/09/23 15:04:21;;;;;;;2.75;0.63;;;;;;;;;;5051248;28;20060;-67
2022/09/23 15:07:05;;;;;;;2.92;0.85;;;;;;;;;;5051363;28;20157;-67
2022/09/23 15:09:39;;;;;;;2.08;0.80;;;;;;;;;;5051147;28;20060;-67
2022/09/23 15:12:19;;;;;;;1.63;0.65;;;;;;;;;;5051236;28;20051;-66
2022/09/23 15:14:53;;;;;;;1.27;0.50;;;;;;;;;;5051331;28;20076;-66
2022/09/23 15:17:29;;;;;;;1.90;0.68;;;;;;;;;;5017708;28;20413;-68
2022/09/23 15:20:18;;;;;;;1.70;0.70;;;;;;;;;;5011172;28;20429;-68
2022/09/23 15:22:54;;;;;;;2.25;0.98;;;;;;;;;;5011252;28;20054;-67
2022/09/23 15:25:30;;;;;;;2.30;0.63;;;;;;;;;;4978855;28;20056;-67
2022/09/23 15:28:17;;;;;;;1.00;0.60;;;;;;;;;;4998693;28;20061;-67
2022/09/23 15:30:49;;;;;;;1.10;0.52;;;;;;;;;;5071029;28;20543;-67
2022/09/23 15:33:25;;;;;;;1.25;0.55;;;;;;;;;;5070930;28;20392;-67
2022/09/23 15:35:55;;;;;;;3.28;0.80;;;;;;;;;;5070709;28;20044;-67
2022/09/23 15:38:26;;;;;;;1.02;0.60;;;;;;;;;;5050684;28;20064;-67
2022/09/23 15:40:56;;;;;;;2.03;0.70;;;;;;;;;;5050664;28;20401;-69
2022/09/23 15:43:26;;;;;;;1.10;0.52;;;;;;;;;;4985253;28;20052;-67
2022/09/23 15:46:06;;;;;;;2.20;0.47;;;;;;;;;;5050515;28;20049;-68
2022/09/23 15:48:43;;;;;;;1.17;0.47;;;;;;;;;;5017449;28;20057;-67
2022/09/23 15:51:14;;;;;;;1.63;0.60;;;;;;;;;;5050616;28;20053;-68
2022/09/23 15:53:46;;;;;;;1.90;0.75;;;;;;;;;;5050574;28;20457;-67
2022/09/23 15:56:16;;;;;;;0.85;0.52;;;;;;;;;;5017212;28;20062;-69
2022/09/23 15:58:47;;;;;;;1.25;0.80;;;;;;;;;;5068801;28;20063;-67
2022/09/23 16:01:35;;;;;;;1.40;0.70;;;;;;;;;;5053965;28;20040;-67